Time;durP1;ratioP1;P1;durP2;ratioP2;P2;SDS_P1;SDS_P2;PMS_P1;PMS_P2;Temp;Humidity;BMP_temperature;BMP_pressure;BME280_temperature;BME280_humidity;BME280_pressure;Samples;Min_cycle;Max_cycle;Signal;HPM_P1;HPM_P2
2022/03/10 00:01:33;;;;;;;39.90;23.97;;;7.60;90.90;;;;;;5014618;28;20336;-31
2022/03/10 00:04:03;;;;;;;39.50;23.57;;;7.60;90.90;;;;;;5024796;28;20209;-31
2022/03/10 00:06:33;;;;;;;37.23;22.43;;;7.50;90.80;;;;;;5008786;28;20648;-31
2022/03/10 00:09:03;;;;;;;39.80;22.13;;;7.50;90.80;;;;;;5024423;28;20674;-31
2022/03/10 00:11:30;;;;;;;37.00;22.77;;;7.50;90.90;;;;;;5008375;28;20684;-31
2022/03/10 00:13:57;;;;;;;37.30;22.03;;;7.40;90.80;;;;;;5008586;28;20296;-30
2022/03/10 00:16:27;;;;;;;37.17;23.17;;;7.40;90.80;;;;;;5007874;28;20222;-31
2022/03/10 00:18:57;;;;;;;35.03;22.93;;;7.40;90.90;;;;;;5015167;28;20221;-31
2022/03/10 00:21:26;;;;;;;39.97;22.63;;;7.40;90.90;;;;;;5008726;28;20637;-32
2022/03/10 00:23:54;;;;;;;40.10;22.93;;;7.40;91.20;;;;;;4990483;28;20305;-32
2022/03/10 00:26:28;;;;;;;37.87;22.43;;;7.30;90.90;;;;;;5013550;28;20308;-31
2022/03/10 00:28:55;;;;;;;36.37;22.20;;;7.30;91.00;;;;;;5008713;28;20201;-44
2022/03/10 00:31:22;;;;;;;37.57;23.03;;;7.30;90.90;;;;;;5014718;28;20217;-45
2022/03/10 00:33:52;;;;;;;37.57;21.80;;;7.30;90.90;;;;;;5021381;28;20628;-45
2022/03/10 00:36:24;;;;;;;37.50;22.53;;;7.20;90.90;;;;;;5007234;28;20193;-45
2022/03/10 00:38:51;;;;;;;35.73;22.03;;;7.20;90.90;;;;;;5018958;28;20201;-44
2022/03/10 00:41:19;;;;;;;37.70;22.77;;;7.20;91.00;;;;;;5016572;28;20225;-43
2022/03/10 00:43:51;;;;;;;36.53;22.60;;;7.20;91.00;;;;;;4999917;28;20733;-44
2022/03/10 00:46:18;;;;;;;38.10;22.83;;;7.10;91.00;;;;;;5005371;28;20612;-45
2022/03/10 00:48:48;;;;;;;35.43;21.63;;;7.10;91.00;;;;;;5018682;28;20209;-43
2022/03/10 00:51:18;;;;;;;37.60;22.30;;;7.00;91.00;;;;;;5014964;28;20245;-42
2022/03/10 00:53:45;;;;;;;39.70;22.27;;;7.00;91.00;;;;;;5014383;28;20290;-31
2022/03/10 00:56:12;;;;;;;37.17;21.90;;;7.00;91.00;;;;;;5013416;28;20216;-30
2022/03/10 00:58:39;;;;;;;35.23;22.30;;;7.00;91.00;;;;;;5003679;28;20684;-31
2022/03/10 01:01:10;;;;;;;40.63;22.50;;;6.90;91.00;;;;;;5011507;28;20297;-30
2022/03/10 01:03:40;;;;;;;35.70;22.67;;;6.90;91.00;;;;;;5013112;28;20209;-31
2022/03/10 01:06:13;;;;;;;37.87;22.47;;;6.90;91.00;;;;;;5026476;28;20205;-30
2022/03/10 01:08:40;;;;;;;35.57;22.07;;;6.90;91.10;;;;;;5022683;28;20224;-32
2022/03/10 01:11:10;;;;;;;35.93;21.27;;;6.80;91.00;;;;;;5013959;28;20221;-31
2022/03/10 01:13:37;;;;;;;33.90;21.53;;;6.90;91.10;;;;;;5018866;28;20205;-31
2022/03/10 01:16:04;;;;;;;35.63;22.33;;;6.80;91.10;;;;;;5023635;28;20233;-31
2022/03/10 01:18:34;;;;;;;32.97;22.00;;;6.80;91.10;;;;;;5013635;28;20259;-43
2022/03/10 01:21:04;;;;;;;37.33;22.40;;;6.80;91.10;;;;;;5013890;28;20820;-42
2022/03/10 01:23:31;;;;;;;34.77;21.40;;;6.80;91.10;;;;;;5016745;28;20201;-42
2022/03/10 01:25:58;;;;;;;39.00;23.10;;;6.80;91.20;;;;;;5020333;28;20209;-43
2022/03/10 01:28:26;;;;;;;36.70;23.30;;;6.70;91.10;;;;;;5014571;28;20268;-45
2022/03/10 01:30:53;;;;;;;37.83;23.10;;;6.70;91.20;;;;;;5017346;28;20272;-44
2022/03/10 01:33:22;;;;;;;36.40;22.70;;;6.70;91.20;;;;;;5022610;28;20201;-43
2022/03/10 01:35:55;;;;;;;34.90;21.63;;;6.70;91.20;;;;;;5024443;28;20204;-30
2022/03/10 01:38:22;;;;;;;33.43;21.33;;;6.60;91.20;;;;;;5030504;28;20930;-30
2022/03/10 01:40:52;;;;;;;35.53;21.97;;;6.60;91.20;;;;;;5029161;28;20680;-31
2022/03/10 01:43:21;;;;;;;33.37;21.93;;;6.60;91.20;;;;;;5013548;28;20211;-30
2022/03/10 01:45:55;;;;;;;39.93;22.77;;;6.50;91.20;;;;;;5022538;28;20225;-30
2022/03/10 01:48:26;;;;;;;37.33;22.60;;;6.50;91.20;;;;;;5023450;28;20572;-30
2022/03/10 01:50:55;;;;;;;35.83;22.30;;;6.50;91.20;;;;;;5032432;28;20244;-31
2022/03/10 01:53:23;;;;;;;32.57;20.93;;;6.40;91.30;;;;;;5024647;28;20221;-31
2022/03/10 01:55:57;;;;;;;34.40;22.10;;;6.40;91.20;;;;;;5013740;28;20260;-31
2022/03/10 02:03:03;;;;;;;35.50;21.37;;;6.30;91.50;;;;;;5016791;28;20207;-31
2022/03/10 02:05:34;;;;;;;36.50;22.27;;;6.20;91.20;;;;;;5016987;28;20212;-31
2022/03/10 02:10:52;;;;;;;38.40;23.03;;;6.20;91.30;;;;;;5021365;28;20594;-31
2022/03/10 02:13:19;;;;;;;37.63;23.40;;;6.20;91.30;;;;;;5033081;28;20682;-31
2022/03/10 02:18:41;;;;;;;33.47;21.27;;;6.10;91.20;;;;;;5017629;28;20201;-31
2022/03/10 02:21:08;;;;;;;36.63;22.20;;;6.10;91.20;;;;;;5014813;28;20221;-31
2022/03/10 02:23:38;;;;;;;39.77;22.50;;;6.10;91.30;;;;;;5020810;28;20205;-31
2022/03/10 02:26:09;;;;;;;33.40;21.10;;;6.10;91.30;;;;;;5020105;28;20215;-30
2022/03/10 02:28:42;;;;;;;37.03;22.00;;;6.10;91.30;;;;;;5026258;28;20225;-31
2022/03/10 02:31:12;;;;;;;36.57;22.10;;;6.00;91.40;;;;;;5015455;28;20229;-31
2022/03/10 02:33:44;;;;;;;34.20;21.33;;;6.00;91.40;;;;;;5017605;28;20296;-31
2022/03/10 02:36:11;;;;;;;31.97;21.10;;;6.00;91.40;;;;;;5012819;28;20202;-31
2022/03/10 02:38:38;;;;;;;34.70;22.07;;;6.00;91.40;;;;;;5011551;28;20589;-29
2022/03/10 02:41:11;;;;;;;35.60;22.00;;;6.00;91.40;;;;;;5011148;28;20213;-30
2022/03/10 02:43:41;;;;;;;34.60;21.87;;;5.90;91.40;;;;;;5015863;28;20213;-30
2022/03/10 02:46:08;;;;;;;33.00;21.53;;;5.90;91.40;;;;;;5008424;28;20201;-30
2022/03/10 02:48:36;;;;;;;36.10;21.97;;;5.90;91.40;;;;;;5010705;28;20749;-30
2022/03/10 02:51:07;;;;;;;32.43;21.67;;;5.90;91.70;;;;;;5018120;28;20224;-30
2022/03/10 02:53:35;;;;;;;32.70;20.70;;;5.90;91.50;;;;;;5015397;28;20264;-30
2022/03/10 02:56:02;;;;;;;33.03;20.20;;;5.80;91.40;;;;;;5019694;28;20225;-30
2022/03/10 02:58:29;;;;;;;32.40;21.63;;;5.80;91.50;;;;;;5022353;28;20209;-30
2022/03/10 03:00:57;;;;;;;34.20;21.57;;;5.80;91.50;;;;;;5018462;28;20200;-30
2022/03/10 03:03:26;;;;;;;33.90;21.13;;;5.80;91.50;;;;;;5001251;28;20291;-30
2022/03/10 03:05:56;;;;;;;32.50;20.77;;;5.80;91.50;;;;;;5028410;28;20213;-30
2022/03/10 03:08:26;;;;;;;36.10;21.10;;;5.70;91.50;;;;;;5010807;28;20678;-30
2022/03/10 03:10:53;;;;;;;35.00;21.43;;;5.70;91.60;;;;;;5014553;28;20291;-31
2022/03/10 03:13:25;;;;;;;33.30;20.73;;;5.70;91.50;;;;;;5004427;28;20193;-30
2022/03/10 03:15:52;;;;;;;32.60;20.97;;;5.70;91.50;;;;;;5020513;28;20209;-30
2022/03/10 03:18:19;;;;;;;36.60;21.77;;;5.70;91.60;;;;;;5009496;28;20244;-30
2022/03/10 03:20:50;;;;;;;32.93;19.57;;;5.60;91.50;;;;;;5009569;28;20197;-30
2022/03/10 03:23:19;;;;;;;33.80;21.07;;;5.60;91.60;;;;;;5021702;28;20292;-31
2022/03/10 03:25:49;;;;;;;30.70;19.90;;;5.60;91.60;;;;;;5022252;28;20225;-31
2022/03/10 03:28:24;;;;;;;34.23;20.57;;;5.60;91.60;;;;;;5024449;28;20295;-31
2022/03/10 03:30:51;;;;;;;32.67;20.33;;;5.50;91.60;;;;;;4994548;28;20194;-31
2022/03/10 03:33:21;;;;;;;32.67;20.90;;;5.50;91.60;;;;;;5012838;28;20688;-31
2022/03/10 03:35:50;;;;;;;31.07;20.17;;;5.50;91.50;;;;;;5009498;28;20558;-31
2022/03/10 03:38:22;;;;;;;37.30;21.47;;;5.50;91.60;;;;;;5022110;28;20288;-43
2022/03/10 03:40:52;;;;;;;31.33;20.97;;;5.50;91.70;;;;;;5009042;28;20232;-42
2022/03/10 03:43:22;;;;;;;33.47;21.67;;;5.40;91.50;;;;;;5021524;28;20205;-44
2022/03/10 03:45:49;;;;;;;33.67;21.57;;;5.40;91.60;;;;;;5025328;28;20224;-43
2022/03/10 03:48:21;;;;;;;32.00;20.60;;;5.40;91.60;;;;;;5015681;28;20288;-43
2022/03/10 03:50:48;;;;;;;32.73;20.77;;;5.40;91.70;;;;;;5014195;28;20248;-44
2022/03/10 03:53:16;;;;;;;36.67;21.27;;;5.30;91.60;;;;;;5014829;28;20689;-44
2022/03/10 03:55:48;;;;;;;34.73;21.33;;;5.30;91.60;;;;;;5021663;28;20556;-43
2022/03/10 03:58:15;;;;;;;35.47;21.77;;;5.30;91.70;;;;;;5017468;28;20206;-44
2022/03/10 04:00:47;;;;;;;30.67;19.90;;;5.30;91.60;;;;;;5008940;28;20202;-44
2022/03/10 04:03:17;;;;;;;34.30;20.63;;;5.30;91.70;;;;;;4993180;28;20272;-43
2022/03/10 04:05:47;;;;;;;36.87;20.83;;;5.20;91.70;;;;;;5008019;28;20292;-31
2022/03/10 04:08:21;;;;;;;33.43;20.73;;;5.20;92.00;;;;;;5014430;28;20220;-30
2022/03/10 04:10:52;;;;;;;32.60;20.33;;;5.20;91.70;;;;;;5003931;28;20231;-31
2022/03/10 04:13:23;;;;;;;32.17;20.50;;;5.20;91.80;;;;;;5020711;28;20233;-30
2022/03/10 04:15:51;;;;;;;31.73;20.40;;;5.10;91.70;;;;;;5015869;28;20204;-30
2022/03/10 04:18:19;;;;;;;34.83;21.60;;;5.10;91.70;;;;;;5020350;28;20263;-30
2022/03/10 04:20:49;;;;;;;35.70;21.57;;;5.10;91.70;;;;;;5003850;28;20197;-30
2022/03/10 04:23:18;;;;;;;35.87;20.53;;;5.00;91.70;;;;;;5020241;28;20207;-30
2022/03/10 04:25:45;;;;;;;35.97;22.03;;;5.00;91.70;;;;;;5021072;28;20240;-30
2022/03/10 04:28:15;;;;;;;35.47;21.93;;;5.00;91.70;;;;;;5022436;28;20231;-30
2022/03/10 04:30:44;;;;;;;35.17;20.87;;;5.00;91.70;;;;;;5013994;28;20304;-30
2022/03/10 04:33:12;;;;;;;30.00;19.83;;;4.90;91.70;;;;;;5011484;28;20228;-30
2022/03/10 04:35:41;;;;;;;33.50;21.37;;;4.90;91.60;;;;;;5015065;28;20212;-30
2022/03/10 04:38:10;;;;;;;34.40;21.03;;;4.90;91.70;;;;;;5027370;28;20236;-30
2022/03/10 04:40:38;;;;;;;33.33;21.07;;;4.90;91.70;;;;;;5023327;28;20197;-30
2022/03/10 04:43:10;;;;;;;33.67;20.37;;;4.90;91.70;;;;;;5007382;28;20296;-30
2022/03/10 04:45:40;;;;;;;36.80;22.17;;;4.80;91.70;;;;;;5015205;28;20201;-30
2022/03/10 04:48:11;;;;;;;35.33;20.27;;;4.80;91.70;;;;;;5025449;28;20767;-30
2022/03/10 04:50:39;;;;;;;35.13;20.00;;;4.80;91.80;;;;;;5014109;28;20208;-30
2022/03/10 04:53:09;;;;;;;38.70;21.73;;;4.80;91.70;;;;;;5020757;28;20289;-30
2022/03/10 04:55:36;;;;;;;35.37;21.43;;;4.80;91.70;;;;;;5005105;28;20225;-30
2022/03/10 04:58:05;;;;;;;33.90;20.60;;;4.80;91.70;;;;;;5012586;28;20284;-30
2022/03/10 05:00:35;;;;;;;34.17;20.70;;;4.80;91.70;;;;;;5022059;28;20312;-30
2022/03/10 05:03:02;;;;;;;32.63;20.53;;;4.70;91.70;;;;;;5019212;28;20210;-30
2022/03/10 05:05:34;;;;;;;31.97;20.20;;;4.70;91.80;;;;;;5010667;28;20240;-30
2022/03/10 05:08:02;;;;;;;34.03;20.43;;;4.70;91.80;;;;;;5017532;28;20657;-30
2022/03/10 05:10:34;;;;;;;33.63;21.07;;;4.70;91.80;;;;;;5010070;28;20759;-30
2022/03/10 05:13:01;;;;;;;34.60;20.80;;;4.70;91.80;;;;;;5018283;28;20714;-30
2022/03/10 05:15:32;;;;;;;29.10;19.00;;;4.70;91.80;;;;;;5014560;28;20201;-30
2022/03/10 05:18:04;;;;;;;31.40;19.90;;;4.70;91.80;;;;;;5016949;28;20223;-30
2022/03/10 05:20:35;;;;;;;33.33;20.00;;;4.70;91.80;;;;;;5023785;28;20200;-30
2022/03/10 05:23:04;;;;;;;32.20;20.90;;;4.70;91.80;;;;;;5019413;28;20618;-30
2022/03/10 05:25:33;;;;;;;32.80;20.57;;;4.70;91.80;;;;;;5010634;28;20216;-30
2022/03/10 05:28:03;;;;;;;31.13;20.00;;;4.70;91.90;;;;;;5015472;28;20597;-30
2022/03/10 05:30:33;;;;;;;31.23;19.40;;;4.70;91.80;;;;;;5018752;28;20632;-30
2022/03/10 05:33:03;;;;;;;36.13;20.57;;;4.70;91.90;;;;;;5016314;28;20232;-31
2022/03/10 05:35:32;;;;;;;31.10;20.50;;;4.70;91.90;;;;;;5018245;28;20212;-30
2022/03/10 05:37:59;;;;;;;36.33;20.67;;;4.60;91.90;;;;;;5022811;28;20284;-30
2022/03/10 05:40:27;;;;;;;36.13;21.37;;;4.60;91.80;;;;;;5015249;28;20212;-30
2022/03/10 05:42:59;;;;;;;31.90;21.00;;;4.70;91.90;;;;;;5025304;28;20701;-30
2022/03/10 05:45:29;;;;;;;35.23;22.37;;;4.70;92.00;;;;;;5024483;28;20695;-30
2022/03/10 05:47:57;;;;;;;32.47;21.10;;;4.70;92.00;;;;;;5022703;28;20202;-30
2022/03/10 05:50:29;;;;;;;34.80;21.57;;;4.70;92.00;;;;;;5014907;28;20583;-30
2022/03/10 05:53:00;;;;;;;32.17;20.40;;;4.70;91.80;;;;;;5013700;28;20739;-30
2022/03/10 05:55:27;;;;;;;34.07;21.40;;;4.70;91.90;;;;;;5019318;28;20288;-30
2022/03/10 05:58:01;;;;;;;33.97;20.90;;;4.70;91.90;;;;;;5016952;28;20206;-30
2022/03/10 06:00:32;;;;;;;33.67;20.63;;;4.80;92.10;;;;;;5016970;28;20201;-30
2022/03/10 06:02:59;;;;;;;33.43;21.13;;;4.80;92.10;;;;;;4992273;28;20209;-30
2022/03/10 06:05:27;;;;;;;31.73;20.60;;;4.80;92.20;;;;;;5017687;28;20770;-30
2022/03/10 06:07:54;;;;;;;36.47;20.93;;;4.80;92.20;;;;;;5026117;28;20230;-30
2022/03/10 06:10:22;;;;;;;37.83;22.07;;;4.80;92.20;;;;;;5027116;28;20307;-30
2022/03/10 06:12:50;;;;;;;35.30;22.30;;;4.80;92.10;;;;;;5017345;28;20700;-42
2022/03/10 06:15:20;;;;;;;33.77;21.07;;;4.80;92.20;;;;;;4997196;28;20296;-43
2022/03/10 06:17:47;;;;;;;32.83;21.33;;;4.80;92.30;;;;;;5003976;28;20737;-44
2022/03/10 06:20:16;;;;;;;32.50;21.47;;;4.80;92.20;;;;;;4998883;28;20224;-44
2022/03/10 06:22:45;;;;;;;36.13;20.43;;;4.90;92.20;;;;;;4992460;28;20225;-44
2022/03/10 06:25:13;;;;;;;38.33;21.53;;;4.90;92.20;;;;;;5016816;28;20212;-44
2022/03/10 06:27:44;;;;;;;32.03;20.57;;;4.90;92.30;;;;;;5006421;28;20605;-44
2022/03/10 06:30:12;;;;;;;35.00;21.17;;;4.90;92.30;;;;;;5024871;28;20198;-41
2022/03/10 06:32:42;;;;;;;34.67;21.20;;;4.90;92.30;;;;;;5022000;28;20627;-43
2022/03/10 06:35:13;;;;;;;33.73;21.33;;;5.00;92.40;;;;;;5020815;28;20209;-42
2022/03/10 06:37:47;;;;;;;34.90;20.57;;;5.00;92.30;;;;;;5015577;28;20667;-43
2022/03/10 06:40:22;;;;;;;34.13;21.13;;;5.00;92.40;;;;;;5022056;28;20324;-43
2022/03/10 06:42:56;;;;;;;33.93;19.97;;;5.10;92.50;;;;;;5020793;28;20208;-44
2022/03/10 06:45:23;;;;;;;32.67;20.87;;;5.10;92.40;;;;;;5027267;28;20321;-42
2022/03/10 06:47:51;;;;;;;34.00;20.30;;;5.20;92.50;;;;;;5028721;28;20205;-42
2022/03/10 06:50:19;;;;;;;34.17;21.50;;;5.20;92.50;;;;;;5023369;28;20202;-43
2022/03/10 06:52:47;;;;;;;35.13;21.90;;;5.20;92.50;;;;;;5020973;28;20240;-43
2022/03/10 06:55:23;;;;;;;33.83;21.23;;;5.30;92.60;;;;;;5014045;28;20248;-41
2022/03/10 06:57:55;;;;;;;34.67;20.87;;;5.30;92.60;;;;;;5025021;28;20296;-45
2022/03/10 07:00:26;;;;;;;35.70;21.30;;;5.30;92.60;;;;;;5022872;28;20776;-44
2022/03/10 07:03:01;;;;;;;32.97;21.13;;;5.40;92.70;;;;;;5014245;28;20266;-42
2022/03/10 07:05:31;;;;;;;33.27;21.37;;;5.40;92.70;;;;;;5017473;28;20193;-43
2022/03/10 07:08:03;;;;;;;33.60;21.70;;;5.50;92.70;;;;;;5012848;28;20198;-42
2022/03/10 07:10:30;;;;;;;33.03;20.63;;;5.50;92.80;;;;;;5013135;28;20237;-42
2022/03/10 07:13:04;;;;;;;37.13;22.30;;;5.60;92.80;;;;;;5027157;28;20228;-43
2022/03/10 07:15:31;;;;;;;36.53;21.53;;;5.60;92.80;;;;;;5021716;28;20610;-43
2022/03/10 07:18:01;;;;;;;33.57;20.70;;;5.70;92.90;;;;;;5013591;28;20202;-43
2022/03/10 07:20:28;;;;;;;34.37;21.43;;;5.70;92.90;;;;;;5012538;28;20457;-41
2022/03/10 07:22:58;;;;;;;34.67;21.27;;;5.80;93.00;;;;;;5015063;28;20734;-42
2022/03/10 07:25:30;;;;;;;35.30;21.20;;;5.80;93.00;;;;;;5013053;28;20212;-43
2022/03/10 07:27:57;;;;;;;33.30;20.23;;;5.90;93.10;;;;;;4992360;28;20719;-42
2022/03/10 07:30:24;;;;;;;35.63;21.33;;;5.90;93.00;;;;;;5022733;28;20315;-41
2022/03/10 07:32:54;;;;;;;35.53;21.47;;;5.90;93.10;;;;;;5019373;28;20658;-42
2022/03/10 07:35:27;;;;;;;35.30;21.80;;;6.00;93.10;;;;;;5021196;28;20566;-41
2022/03/10 07:38:00;;;;;;;32.93;21.40;;;6.00;93.20;;;;;;5022405;28;20641;-43
2022/03/10 07:40:27;;;;;;;38.23;20.67;;;6.10;93.20;;;;;;5013923;28;20656;-42
2022/03/10 07:42:54;;;;;;;33.57;20.50;;;6.10;93.10;;;;;;5006309;28;20201;-42
2022/03/10 07:45:22;;;;;;;34.83;20.67;;;6.20;93.20;;;;;;5002112;28;20304;-42
2022/03/10 07:47:49;;;;;;;34.47;20.80;;;6.30;93.20;;;;;;5021801;28;20288;-31
2022/03/10 07:50:23;;;;;;;32.77;20.33;;;6.30;93.30;;;;;;5024427;28;20208;-30
2022/03/10 07:52:52;;;;;;;33.40;20.60;;;6.40;93.40;;;;;;5022404;28;20573;-30
2022/03/10 07:55:24;;;;;;;33.63;20.90;;;6.40;93.30;;;;;;5009048;28;20783;-30
2022/03/10 07:57:51;;;;;;;33.67;20.67;;;6.50;93.50;;;;;;5025490;28;20201;-31
2022/03/10 08:00:38;;;;;;;30.57;19.97;;;6.50;93.40;;;;;;5023726;28;20204;-31
2022/03/10 08:03:06;;;;;;;31.43;20.77;;;6.60;93.50;;;;;;5017704;28;20369;-30
2022/03/10 08:05:37;;;;;;;31.63;21.13;;;6.70;93.80;;;;;;5008170;28;20244;-30
2022/03/10 08:08:08;;;;;;;33.83;21.50;;;6.70;93.60;;;;;;5024623;28;20212;-31
2022/03/10 08:10:35;;;;;;;34.90;22.37;;;6.80;93.60;;;;;;5028259;28;20209;-31
2022/03/10 08:13:05;;;;;;;36.57;20.40;;;6.80;93.60;;;;;;5016398;28;20232;-31
2022/03/10 08:15:34;;;;;;;30.50;19.50;;;6.90;93.70;;;;;;5010098;28;20659;-30
2022/03/10 08:18:04;;;;;;;33.73;21.30;;;6.90;93.60;;;;;;5009834;28;20253;-31
2022/03/10 08:20:33;;;;;;;31.87;20.53;;;7.00;93.70;;;;;;5008564;28;20541;-31
2022/03/10 08:23:02;;;;;;;31.13;19.67;;;7.10;93.80;;;;;;5008302;28;20648;-31
2022/03/10 08:25:29;;;;;;;32.20;20.10;;;7.20;93.80;;;;;;5009940;28;20345;-30
2022/03/10 08:27:56;;;;;;;31.00;20.90;;;7.20;93.80;;;;;;5011510;28;20301;-31
2022/03/10 08:30:26;;;;;;;32.63;19.67;;;7.30;93.90;;;;;;5025372;28;20677;-31
2022/03/10 08:32:53;;;;;;;32.43;20.00;;;7.40;94.00;;;;;;5018345;28;20217;-31
2022/03/10 08:35:21;;;;;;;30.43;19.37;;;7.40;93.90;;;;;;5024883;28;20733;-31
2022/03/10 08:37:50;;;;;;;27.93;18.57;;;7.50;94.00;;;;;;5008883;28;20287;-30
2022/03/10 08:40:22;;;;;;;32.27;20.77;;;7.60;94.00;;;;;;5004610;28;20204;-29
2022/03/10 08:42:53;;;;;;;31.13;20.00;;;7.60;94.10;;;;;;5008781;28;20211;-31
2022/03/10 08:45:21;;;;;;;35.47;21.63;;;7.70;94.10;;;;;;5008919;28;20312;-30
2022/03/10 08:47:48;;;;;;;31.93;19.97;;;7.80;94.20;;;;;;5016262;28;20208;-30
2022/03/10 08:50:22;;;;;;;30.63;19.10;;;7.80;94.20;;;;;;5012548;28;20228;-43
2022/03/10 08:52:52;;;;;;;31.40;19.60;;;7.90;94.30;;;;;;5022951;28;20291;-43
2022/03/10 08:55:23;;;;;;;32.07;19.37;;;8.00;94.40;;;;;;5010528;28;20876;-42
2022/03/10 08:57:51;;;;;;;31.00;19.37;;;8.10;94.30;;;;;;5017808;28;20652;-43
2022/03/10 09:00:20;;;;;;;28.47;19.40;;;8.20;94.50;;;;;;5010966;28;20205;-44
2022/03/10 09:02:54;;;;;;;31.37;20.50;;;8.30;94.50;;;;;;5013695;28;20231;-43
2022/03/10 09:05:28;;;;;;;29.17;18.93;;;8.40;94.60;;;;;;5005446;28;20687;-44
2022/03/10 09:08:01;;;;;;;27.60;18.37;;;8.40;94.60;;;;;;5001719;28;20216;-43
2022/03/10 09:10:31;;;;;;;28.07;18.33;;;8.50;94.60;;;;;;5016094;28;20776;-42
2022/03/10 09:12:59;;;;;;;28.63;18.53;;;8.60;94.70;;;;;;5010588;28;20451;-41
2022/03/10 09:15:29;;;;;;;27.23;17.77;;;8.70;94.80;;;;;;5011697;28;20262;-42
2022/03/10 09:17:56;;;;;;;27.13;17.97;;;8.80;94.90;;;;;;5016025;28;20312;-42
2022/03/10 09:20:24;;;;;;;27.27;18.33;;;8.90;95.00;;;;;;5013920;28;20278;-42
2022/03/10 09:22:51;;;;;;;24.83;17.87;;;8.90;95.00;;;;;;5024382;28;20205;-45
2022/03/10 09:25:19;;;;;;;26.77;18.20;;;9.00;95.00;;;;;;5017166;28;20232;-43
2022/03/10 09:27:48;;;;;;;27.47;18.07;;;9.10;95.10;;;;;;5006031;28;20296;-44
2022/03/10 09:30:21;;;;;;;22.87;16.13;;;9.20;95.20;;;;;;5016624;28;20680;-45
2022/03/10 09:32:48;;;;;;;28.97;17.93;;;9.30;95.20;;;;;;4997550;28;20251;-43
2022/03/10 09:35:19;;;;;;;27.83;18.13;;;9.40;95.30;;;;;;5030182;28;20622;-47
2022/03/10 09:37:46;;;;;;;28.50;17.33;;;9.50;95.40;;;;;;5019126;28;20272;-30
2022/03/10 09:40:13;;;;;;;25.53;17.77;;;9.60;95.40;;;;;;5016107;28;20293;-30
2022/03/10 09:42:44;;;;;;;26.20;17.63;;;9.70;95.50;;;;;;5029111;28;20200;-30
2022/03/10 09:45:16;;;;;;;26.83;17.60;;;9.80;95.60;;;;;;5012648;28;20270;-30
2022/03/10 09:47:45;;;;;;;23.50;17.13;;;9.90;95.70;;;;;;5028479;28;20678;-30
2022/03/10 09:50:17;;;;;;;26.20;16.70;;;10.00;95.20;;;;;;5023215;28;20256;-30
2022/03/10 09:52:48;;;;;;;28.67;17.20;;;10.10;95.30;;;;;;5010789;28;20566;-30
2022/03/10 09:55:17;;;;;;;23.37;15.57;;;10.20;95.40;;;;;;5003050;28;20234;-30
2022/03/10 09:57:48;;;;;;;26.73;17.30;;;10.30;95.40;;;;;;4992118;28;20634;-30
2022/03/10 10:00:20;;;;;;;28.13;17.63;;;10.40;95.60;;;;;;4997164;28;20314;-30
2022/03/10 10:02:51;;;;;;;24.17;16.13;;;10.50;95.60;;;;;;4993545;28;20198;-31
2022/03/10 10:05:30;;;;;;;26.33;16.97;;;10.60;95.70;;;;;;5010771;28;20301;-30
2022/03/10 10:08:14;;;;;;;24.30;15.83;;;10.70;95.80;;;;;;5008038;28;20186;-31
2022/03/10 10:10:44;;;;;;;23.93;16.00;;;10.80;95.80;;;;;;5000646;28;20216;-30
2022/03/10 10:13:42;;;;;;;25.23;15.60;;;10.80;95.80;;;;;;5009073;28;20221;-31
2022/03/10 10:16:17;;;;;;;24.70;16.43;;;11.00;96.00;;;;;;4993458;28;20197;-30
2022/03/10 10:18:47;;;;;;;25.23;16.50;;;11.00;95.90;;;;;;5009725;28;20293;-30
2022/03/10 10:21:21;;;;;;;24.27;15.73;;;11.10;96.00;;;;;;5005208;28;20661;-30
2022/03/10 10:23:53;;;;;;;23.30;16.03;;;11.20;96.10;;;;;;4988748;28;20280;-31
2022/03/10 10:26:26;;;;;;;22.10;14.93;;;11.30;96.10;;;;;;4995780;28;20205;-31
2022/03/10 10:28:56;;;;;;;23.43;15.27;;;11.40;96.20;;;;;;4999105;28;20281;-29
2022/03/10 10:31:26;;;;;;;23.90;16.23;;;11.50;96.30;;;;;;4996567;28;20325;-30
2022/03/10 10:34:06;;;;;;;24.97;16.33;;;11.50;96.30;;;;;;5002463;28;20628;-31
2022/03/10 10:36:37;;;;;;;24.70;16.77;;;11.60;96.40;;;;;;5000563;28;20225;-31
2022/03/10 10:39:07;;;;;;;30.13;17.50;;;11.70;96.40;;;;;;5007647;28;20232;-30
2022/03/10 10:41:36;;;;;;;22.63;14.60;;;11.80;96.50;;;;;;5006676;28;20202;-31
2022/03/10 10:44:08;;;;;;;23.43;15.93;;;11.90;96.60;;;;;;5007779;28;20686;-30
2022/03/10 10:46:41;;;;;;;24.20;15.47;;;12.00;96.60;;;;;;4994884;28;20662;-30
2022/03/10 10:49:15;;;;;;;21.83;15.43;;;12.00;96.60;;;;;;4993568;28;20746;-30
2022/03/10 10:51:48;;;;;;;23.03;14.90;;;12.10;96.70;;;;;;5001214;28;20387;-31
2022/03/10 10:54:24;;;;;;;26.43;14.97;;;12.20;96.80;;;;;;5023758;28;20229;-30
2022/03/10 10:57:01;;;;;;;24.70;16.87;;;12.30;96.80;;;;;;5017783;28;20630;-31
2022/03/10 10:59:34;;;;;;;22.07;14.70;;;12.40;96.90;;;;;;5012134;28;20231;-31
2022/03/10 11:02:20;;;;;;;21.90;16.43;;;12.50;97.00;;;;;;5009074;28;20197;-30
2022/03/10 11:04:53;;;;;;;23.37;15.77;;;12.50;97.00;;;;;;5017944;28;20582;-31
2022/03/10 11:07:22;;;;;;;25.23;16.17;;;12.60;97.00;;;;;;5019381;28;20206;-31
2022/03/10 11:09:53;;;;;;;22.37;14.43;;;12.70;97.10;;;;;;5018763;28;20206;-31
2022/03/10 11:12:24;;;;;;;27.70;17.07;;;12.70;97.10;;;;;;5026061;28;20205;-31
2022/03/10 11:14:53;;;;;;;23.80;15.87;;;12.80;97.20;;;;;;5015140;28;20252;-31
2022/03/10 11:17:22;;;;;;;31.90;16.67;;;12.90;97.20;;;;;;5020422;28;20243;-31
2022/03/10 11:19:58;;;;;;;23.80;15.17;;;13.00;97.30;;;;;;5000662;28;20205;-45
2022/03/10 11:22:51;;;;;;;23.33;15.30;;;13.10;97.30;;;;;;5013683;28;20218;-45
2022/03/10 11:25:31;;;;;;;21.67;14.97;;;13.10;97.40;;;;;;4999511;28;20288;-45
2022/03/10 11:28:08;;;;;;;23.10;14.80;;;13.20;97.40;;;;;;5019451;28;20228;-44
2022/03/10 11:30:39;;;;;;;23.50;13.97;;;13.30;97.50;;;;;;5027932;28;20197;-30
2022/03/10 11:33:12;;;;;;;22.47;14.07;;;13.40;97.50;;;;;;5011499;28;20308;-31
2022/03/10 11:35:44;;;;;;;18.97;13.43;;;13.50;97.60;;;;;;5021203;28;20213;-31
2022/03/10 11:38:13;;;;;;;19.47;13.03;;;13.60;97.70;;;;;;5018686;28;20287;-30
2022/03/10 11:40:47;;;;;;;18.47;13.30;;;13.60;97.60;;;;;;5015510;28;20625;-30
2022/03/10 11:43:38;;;;;;;19.13;12.83;;;13.70;97.80;;;;;;5009176;28;20209;-31
2022/03/10 11:46:22;;;;;;;18.53;13.37;;;13.80;97.70;;;;;;5022673;28;20219;-31
2022/03/10 11:49:12;;;;;;;21.55;12.65;;;13.90;97.80;;;;;;5015464;28;20216;-32
2022/03/10 11:52:04;;;;;;;26.20;13.90;;;13.90;97.80;;;;;;5027489;28;20258;-31
2022/03/10 11:54:32;;;;;;;18.23;12.27;;;14.10;97.90;;;;;;5015872;28;20793;-31
2022/03/10 11:57:04;;;;;;;20.03;12.43;;;14.10;97.90;;;;;;5020480;28;20205;-31
2022/03/10 11:59:31;;;;;;;20.47;12.00;;;14.20;97.90;;;;;;5025947;28;20209;-30
2022/03/10 12:02:00;;;;;;;17.53;11.10;;;14.30;98.00;;;;;;5018826;28;20220;-30
2022/03/10 12:04:55;;;;;;;14.83;10.27;;;14.30;98.00;;;;;;5006788;28;20767;-30
2022/03/10 12:07:30;;;;;;;15.10;11.18;;;14.40;98.10;;;;;;5008684;28;20208;-30
2022/03/10 12:10:08;;;;;;;16.55;11.27;;;14.50;98.10;;;;;;4994672;28;20213;-30
2022/03/10 12:12:41;;;;;;;15.90;10.77;;;14.50;98.10;;;;;;5020192;28;20209;-32
2022/03/10 12:15:29;;;;;;;15.02;10.35;;;14.60;98.10;;;;;;5021332;28;20828;-31
2022/03/10 12:17:57;;;;;;;13.37;9.87;;;14.70;98.20;;;;;;5024159;28;20309;-32
2022/03/10 12:20:43;;;;;;;15.02;9.68;;;14.80;98.30;;;;;;5014230;28;20228;-31
2022/03/10 12:23:13;;;;;;;14.32;9.43;;;14.90;98.40;;;;;;5014127;28;20267;-31
2022/03/10 12:25:41;;;;;;;14.30;9.07;;;14.90;98.30;;;;;;5013376;28;20618;-30
2022/03/10 12:28:24;;;;;;;13.32;9.23;;;15.00;98.40;;;;;;5018534;28;20218;-45
2022/03/10 12:31:03;;;;;;;13.07;9.30;;;15.10;98.50;;;;;;5014938;28;20693;-44
2022/03/10 12:33:31;;;;;;;12.05;9.10;;;15.10;98.40;;;;;;5016562;28;20571;-45
2022/03/10 12:35:59;;;;;;;13.50;9.40;;;15.20;98.80;;;;;;5026898;28;20577;-43
2022/03/10 12:38:40;;;;;;;13.13;9.03;;;15.30;98.50;;;;;;5026996;28;20658;-44
2022/03/10 12:41:10;;;;;;;12.77;9.43;;;15.30;98.50;;;;;;5016967;28;20272;-45
2022/03/10 12:43:38;;;;;;;14.63;9.35;;;15.30;98.50;;;;;;5019342;28;20208;-44
2022/03/10 12:46:10;;;;;;;11.93;8.25;;;15.40;98.50;;;;;;5011377;28;20598;-43
2022/03/10 12:48:57;;;;;;;11.30;8.13;;;15.50;98.60;;;;;;5007587;28;20224;-43
2022/03/10 12:51:37;;;;;;;11.57;8.25;;;15.50;98.50;;;;;;5016639;28;20212;-43
2022/03/10 12:54:12;;;;;;;14.82;8.52;;;15.50;98.50;;;;;;5017660;28;20687;-42
2022/03/10 12:56:45;;;;;;;12.25;8.57;;;15.60;98.50;;;;;;5023712;28;20197;-43
2022/03/10 12:59:34;;;;;;;12.45;8.82;;;15.60;98.60;;;;;;5022900;28;20272;-42
2022/03/10 13:02:11;;;;;;;15.63;9.63;;;15.70;98.60;;;;;;5021163;28;20196;-44
2022/03/10 13:04:57;;;;;;;11.20;7.82;;;15.70;98.40;;;;;;5017322;28;20242;-43